Time;durP1;ratioP1;P1;durP2;ratioP2;P2;SDS_P1;SDS_P2;PMS_P1;PMS_P2;Temp;Humidity;BMP_temperature;BMP_pressure;BME280_temperature;BME280_humidity;BME280_pressure;Samples;Min_cycle;Max_cycle;Signal;HPM_P1;HPM_P2
2022/12/29 00:01:38;;;;;;;1.87;1.30;;;;;;;8.55;82.84;97699.94;5014777;28;20234;-70
2022/12/29 00:04:05;;;;;;;1.80;1.50;;;;;;;8.66;83.01;97692.13;5014446;28;20222;-70
2022/12/29 00:06:32;;;;;;;2.63;1.47;;;;;;;8.62;83.51;97690.09;5014466;28;20213;-70
2022/12/29 00:08:59;;;;;;;3.30;1.43;;;;;;;8.67;82.10;97688.44;5014431;28;20203;-70
2022/12/29 00:11:27;;;;;;;1.67;1.33;;;;;;;8.68;82.81;97683.94;5014276;28;20231;-70
2022/12/29 00:16:39;;;;;;;1.33;1.23;;;;;;;8.69;83.94;97667.03;5003321;28;20210;-70
2022/12/29 00:19:06;;;;;;;3.67;1.40;;;;;;;8.72;83.73;97658.63;5014530;28;20202;-70
2022/12/29 00:35:23;;;;;;;2.07;1.20;;;;;;;9.15;79.28;97656.81;5014118;28;20229;-70
2022/12/29 00:46:10;;;;;;;3.17;1.20;;;;;;;9.14;80.29;97634.78;5014030;28;20244;-70
2022/12/29 00:51:21;;;;;;;1.93;1.43;;;;;;;9.34;78.03;97637.22;5014027;28;20209;-70
2022/12/29 00:53:47;;;;;;;1.77;1.30;;;;;;;9.26;80.06;97632.19;5013750;28;20213;-70
2022/12/29 00:56:13;;;;;;;2.80;1.20;;;;;;;9.19;80.85;97631.47;5014005;28;20225;-70
2022/12/29 00:58:40;;;;;;;2.27;1.40;;;;;;;9.34;78.99;97640.69;5013893;28;20211;-70
2022/12/29 01:01:09;;;;;;;2.50;1.20;;;;;;;9.32;78.31;97639.28;5013870;28;20227;-70
2022/12/29 01:03:37;;;;;;;1.67;1.30;;;;;;;9.29;78.63;97634.44;5013818;28;20230;-70
2022/12/29 01:06:06;;;;;;;1.80;1.30;;;;;;;9.24;79.86;97643.03;5013590;28;20698;-70
2022/12/29 01:08:33;;;;;;;1.40;1.23;;;;;;;9.28;79.18;97646.06;5014006;28;20217;-70
2022/12/29 01:11:06;;;;;;;6.73;1.67;;;;;;;9.27;79.39;97647.06;5013330;28;20706;-70
2022/12/29 01:13:33;;;;;;;2.77;1.23;;;;;;;9.23;79.86;97651.22;5013740;28;20191;-71
2022/12/29 01:16:00;;;;;;;1.83;1.00;;;;;;;9.40;79.18;97655.72;5014284;28;20206;-70
2022/12/29 01:18:27;;;;;;;1.20;1.10;;;;;;;9.28;79.08;97654.81;5013480;28;20210;-71
2022/12/29 01:21:05;;;;;;;1.43;1.13;;;;;;;9.23;80.47;97659.97;5013510;28;20230;-70
2022/12/29 01:23:33;;;;;;;2.47;1.10;;;;;;;9.32;79.51;97655.22;5013616;28;20218;-70
2022/12/29 01:26:09;;;;;;;3.40;1.13;;;;;;;9.25;80.58;97663.25;5013688;28;20208;-70
2022/12/29 01:28:38;;;;;;;1.90;1.20;;;;;;;9.32;78.92;97661.31;5013684;28;20291;-70
2022/12/29 01:31:05;;;;;;;2.07;1.30;;;;;;;9.26;80.16;97656.91;5013604;28;20257;-70
2022/12/29 01:33:31;;;;;;;3.37;1.23;;;;;;;9.22;80.54;97657.53;5013879;28;20206;-70
2022/12/29 01:36:05;;;;;;;1.20;1.00;;;;;;;9.24;80.54;97656.28;5013573;28;20678;-70
2022/12/29 01:38:32;;;;;;;1.90;1.33;;;;;;;9.25;80.56;97657.94;5013655;28;20198;-70
2022/12/29 01:40:58;;;;;;;1.23;1.00;;;;;;;9.16;80.61;97653.94;5013480;28;20226;-70
2022/12/29 01:43:43;;;;;;;1.40;1.00;;;;;;;9.19;81.70;97650.03;5013382;28;20222;-70
2022/12/29 01:46:39;;;;;;;1.50;1.00;;;;;;;9.32;80.40;97655.22;5013086;28;20217;-70
2022/12/29 01:49:08;;;;;;;1.37;1.07;;;;;;;9.26;80.59;97658.72;5013469;28;20190;-70
2022/12/29 01:51:43;;;;;;;1.57;1.07;;;;;;;9.17;80.47;97649.44;5013447;28;20233;-70
2022/12/29 01:54:19;;;;;;;3.23;1.10;;;;;;;9.10;81.24;97662.75;5014083;28;20190;-70
2022/12/29 01:56:46;;;;;;;2.97;1.27;;;;;;;9.12;81.63;97665.19;5017005;28;20641;-70
2022/12/29 01:59:18;;;;;;;2.70;1.10;;;;;;;9.06;82.49;97650.97;5016008;28;20206;-70
2022/12/29 02:01:45;;;;;;;1.80;0.83;;;;;;;9.05;82.03;97649.34;5017021;28;20286;-70
2022/12/29 02:04:13;;;;;;;1.93;1.37;;;;;;;8.98;82.59;97643.31;5016717;28;20222;-70
2022/12/29 02:06:48;;;;;;;1.93;1.20;;;;;;;8.99;82.67;97646.75;5016718;28;20685;-70
2022/12/29 02:09:15;;;;;;;2.60;1.20;;;;;;;9.00;82.26;97646.53;5016696;28;20222;-70
2022/12/29 02:11:41;;;;;;;1.33;1.00;;;;;;;8.93;83.81;97643.16;5016563;28;20786;-70
2022/12/29 02:14:12;;;;;;;2.20;1.30;;;;;;;8.88;84.39;97636.88;5016622;28;20203;-70
2022/12/29 02:16:38;;;;;;;1.43;1.20;;;;;;;8.81;86.15;97633.47;5016255;28;20207;-70
2022/12/29 02:19:45;;;;;;;2.73;1.20;;;;;;;8.78;84.99;97626.75;5016534;28;20210;-70
2022/12/29 02:22:18;;;;;;;1.87;1.20;;;;;;;8.77;85.77;97632.28;5000122;28;20234;-70
2022/12/29 02:25:06;;;;;;;1.80;1.10;;;;;;;8.73;86.26;97629.25;5016426;28;20305;-70
2022/12/29 02:27:41;;;;;;;2.20;1.00;;;;;;;8.76;85.59;97630.66;5016287;28;20305;-70
2022/12/29 02:30:27;;;;;;;1.73;1.03;;;;;;;8.75;85.43;97637.00;5016857;28;20198;-70
2022/12/29 02:32:56;;;;;;;3.33;1.37;;;;;;;8.73;85.28;97631.91;5015160;28;20230;-70
2022/12/29 02:35:38;;;;;;;1.30;1.20;;;;;;;8.73;85.97;97628.47;5016511;28;20208;-70
2022/12/29 02:38:16;;;;;;;4.17;1.10;;;;;;;8.71;85.07;97627.84;5015305;28;20631;-70
2022/12/29 02:40:47;;;;;;;1.40;1.13;;;;;;;8.74;85.36;97632.72;5016352;28;20190;-70
2022/12/29 02:43:48;;;;;;;3.70;1.20;;;;;;;8.77;84.52;97622.50;5016386;28;20190;-70
2022/12/29 02:46:29;;;;;;;3.20;1.20;;;;;;;8.80;85.04;97602.69;5016474;28;20203;-70
2022/12/29 02:49:12;;;;;;;2.00;1.00;;;;;;;8.88;83.41;97620.97;5015903;28;20570;-70
2022/12/29 02:51:48;;;;;;;1.47;1.07;;;;;;;8.85;83.65;97613.47;5014936;28;20313;-71
2022/12/29 02:57:01;;;;;;;2.13;1.10;;;;;;;8.98;83.39;97615.97;5015202;28;20177;-70
2022/12/29 02:59:27;;;;;;;1.27;1.03;;;;;;;9.01;82.61;97616.34;5016054;28;20233;-70
2022/12/29 03:02:20;;;;;;;3.97;1.30;;;;;;;8.87;85.82;97614.06;5016101;28;20234;-70
2022/12/29 03:05:05;;;;;;;2.13;1.00;;;;;;;8.88;85.41;97616.47;5015715;28;20238;-70
2022/12/29 03:08:08;;;;;;;3.97;1.20;;;;;;;8.96;84.39;97618.84;5015509;28;20202;-70
2022/12/29 03:10:59;;;;;;;3.77;1.17;;;;;;;8.94;84.82;97614.78;5015304;28;20308;-70
2022/12/29 03:16:46;;;;;;;2.37;1.10;;;;;;;8.92;84.96;97614.22;5015965;28;20584;-70
2022/12/29 03:19:36;;;;;;;1.73;1.20;;;;;;;8.92;83.59;97611.56;5015749;28;20191;-70
2022/12/29 03:24:55;;;;;;;5.57;1.40;;;;;;;8.94;84.59;97593.59;5015558;28;20206;-70
2022/12/29 03:27:32;;;;;;;2.13;1.10;;;;;;;9.07;82.84;97588.16;5014999;28;20755;-70
2022/12/29 03:30:03;;;;;;;1.53;1.00;;;;;;;9.09;83.02;97586.09;5014927;28;20553;-70
2022/12/29 03:32:39;;;;;;;1.37;1.10;;;;;;;9.15;84.02;97585.22;5015237;28;20229;-70
2022/12/29 03:35:08;;;;;;;1.47;0.83;;;;;;;9.13;83.17;97589.91;5015268;28;20201;-70
2022/12/29 03:37:42;;;;;;;1.80;1.20;;;;;;;9.18;84.30;97590.06;5014078;28;20240;-70
2022/12/29 03:40:08;;;;;;;1.13;0.83;;;;;;;9.32;82.71;97591.56;5015026;28;20631;-70
2022/12/29 03:42:37;;;;;;;1.90;1.17;;;;;;;9.34;82.13;97592.13;5013600;28;20594;-70
2022/12/29 03:45:06;;;;;;;4.17;1.00;;;;;;;9.27;83.56;97575.47;5013866;28;20250;-70
2022/12/29 03:47:32;;;;;;;3.70;0.93;;;;;;;9.36;82.16;97574.13;5014953;28;20237;-70
2022/12/29 03:49:59;;;;;;;1.70;0.83;;;;;;;9.30;83.36;97567.06;5014996;28;20238;-70
2022/12/29 03:52:25;;;;;;;1.20;0.90;;;;;;;9.41;82.46;97563.69;5014724;28;20231;-70
2022/12/29 03:54:51;;;;;;;1.63;1.10;;;;;;;9.47;81.71;97563.59;5014650;28;20538;-70
2022/12/29 03:57:18;;;;;;;1.70;1.00;;;;;;;9.33;82.97;97562.13;5014638;28;20214;-70
2022/12/29 03:59:44;;;;;;;1.53;1.13;;;;;;;9.32;82.68;97570.34;5014737;28;20211;-70
2022/12/29 04:02:10;;;;;;;1.60;1.03;;;;;;;9.24;83.27;97573.28;5014544;28;20223;-70
2022/12/29 04:04:37;;;;;;;1.60;1.00;;;;;;;9.20;83.33;97572.91;5014636;28;20226;-70
2022/12/29 04:07:03;;;;;;;4.80;1.10;;;;;;;9.16;84.57;97579.69;5014592;28;20213;-70
2022/12/29 04:09:31;;;;;;;1.27;0.90;;;;;;;9.30;83.86;97575.84;5014580;28;20207;-70
2022/12/29 04:11:57;;;;;;;1.87;0.90;;;;;;;9.43;83.08;97570.38;5014449;28;20233;-70
2022/12/29 04:14:23;;;;;;;1.67;0.70;;;;;;;9.33;83.58;97566.63;5014361;28;20203;-70
2022/12/29 04:16:50;;;;;;;1.80;1.00;;;;;;;9.34;84.29;97569.06;5013643;28;20211;-70
2022/12/29 04:19:16;;;;;;;2.03;0.80;;;;;;;9.68;82.45;97592.31;5014150;28;20207;-70
2022/12/29 04:21:42;;;;;;;2.03;0.80;;;;;;;10.06;80.00;97600.81;5014224;28;20264;-70
2022/12/29 04:24:08;;;;;;;1.23;0.90;;;;;;;10.48;77.74;97605.06;5014124;28;20666;-70
2022/12/29 04:26:34;;;;;;;1.43;1.07;;;;;;;10.57;77.29;97605.50;5014050;28;20215;-71
2022/12/29 04:29:05;;;;;;;1.10;1.00;;;;;;;10.56;77.62;97596.75;5014165;28;20206;-70
2022/12/29 04:31:35;;;;;;;1.00;0.90;;;;;;;10.59;77.57;97598.13;5013747;28;20230;-70
2022/12/29 04:34:01;;;;;;;3.67;1.47;;;;;;;10.65;77.72;97587.41;5013535;28;20258;-70
2022/12/29 04:36:28;;;;;;;2.17;1.10;;;;;;;10.91;76.36;97594.09;5013797;28;20210;-70
2022/12/29 04:38:54;;;;;;;2.60;1.00;;;;;;;10.79;77.65;97574.66;5014022;28;20211;-70
2022/12/29 04:41:20;;;;;;;2.40;1.20;;;;;;;10.66;77.91;97572.25;5013784;28;20230;-70
2022/12/29 04:43:54;;;;;;;2.30;1.00;;;;;;;10.48;79.15;97572.34;5013689;28;20213;-70
2022/12/29 04:46:23;;;;;;;1.87;1.10;;;;;;;10.29;80.02;97581.44;5013692;28;20219;-70
2022/12/29 04:48:50;;;;;;;3.27;1.20;;;;;;;10.41;79.38;97592.91;5013591;28;20210;-70
2022/12/29 04:51:16;;;;;;;2.27;0.80;;;;;;;10.56;78.47;97579.97;5013868;28;20230;-70
2022/12/29 04:53:43;;;;;;;1.43;1.20;;;;;;;10.62;79.11;97581.72;5013964;28;20292;-70
2022/12/29 04:56:13;;;;;;;2.10;1.10;;;;;;;10.59;78.53;97584.84;5013673;28;20203;-70
2022/12/29 04:58:40;;;;;;;2.20;1.03;;;;;;;10.69;78.45;97593.06;5013226;28;20206;-70
2022/12/29 05:01:06;;;;;;;2.30;0.93;;;;;;;10.65;78.55;97587.41;5013370;28;20226;-70
2022/12/29 05:03:35;;;;;;;2.03;1.20;;;;;;;10.65;79.12;97582.06;5013573;28;20206;-70
2022/12/29 05:06:02;;;;;;;3.23;1.50;;;;;;;10.59;79.31;97590.16;5013290;28;20227;-70
2022/12/29 05:08:29;;;;;;;1.63;0.93;;;;;;;10.70;79.38;97571.56;5013268;28;20213;-70
2022/12/29 05:10:55;;;;;;;2.13;1.10;;;;;;;10.54;80.88;97571.44;5013270;28;20585;-70
2022/12/29 05:13:21;;;;;;;1.77;1.10;;;;;;;10.59;79.96;97568.91;5013457;28;20209;-70
2022/12/29 05:15:55;;;;;;;2.37;1.30;;;;;;;10.94;78.22;97570.50;5013244;28;20202;-70
2022/12/29 05:18:21;;;;;;;1.20;1.10;;;;;;;10.90;78.51;97565.88;5012827;28;20202;-70
2022/12/29 05:20:49;;;;;;;2.40;1.20;;;;;;;10.88;78.65;97565.31;5012991;28;20242;-70
2022/12/29 05:23:18;;;;;;;2.43;1.30;;;;;;;10.72;79.63;97564.16;5013294;28;20539;-70
2022/12/29 05:25:48;;;;;;;1.97;1.23;;;;;;;10.61;79.98;97545.53;5013276;28;20322;-70
2022/12/29 05:28:20;;;;;;;2.17;1.20;;;;;;;10.54;80.51;97561.59;5013050;28;20257;-70
2022/12/29 05:30:53;;;;;;;1.97;1.30;;;;;;;10.54;80.73;97563.47;5016374;28;20696;-70
2022/12/29 05:33:27;;;;;;;1.47;1.10;;;;;;;10.86;78.54;97562.88;5016899;28;20614;-70
2022/12/29 05:35:54;;;;;;;2.53;1.03;;;;;;;10.84;78.99;97572.13;5017093;28;20186;-70
2022/12/29 05:38:20;;;;;;;1.20;1.00;;;;;;;10.87;78.91;97587.63;5017114;28;20242;-70
2022/12/29 05:40:46;;;;;;;3.00;1.10;;;;;;;10.89;78.35;97570.38;5016936;28;20297;-70
2022/12/29 05:43:13;;;;;;;1.37;0.90;;;;;;;10.84;78.71;97569.47;5017066;28;20208;-70
2022/12/29 05:45:39;;;;;;;3.53;1.20;;;;;;;10.76;79.11;97569.81;5016894;28;20230;-70
2022/12/29 05:48:06;;;;;;;1.17;1.07;;;;;;;10.61;80.34;97564.16;5016967;28;20213;-70
2022/12/29 05:50:32;;;;;;;1.10;1.00;;;;;;;10.83;78.99;97565.19;5016725;28;20704;-70
2022/12/29 05:52:58;;;;;;;1.47;1.13;;;;;;;10.71;79.48;97564.38;5017021;28;20295;-70
2022/12/29 05:55:25;;;;;;;2.37;1.20;;;;;;;10.69;79.50;97574.44;5017000;28;20205;-70
2022/12/29 05:57:51;;;;;;;4.47;1.23;;;;;;;10.85;78.92;97571.06;5016770;28;20202;-70
2022/12/29 06:00:18;;;;;;;4.07;1.30;;;;;;;10.75;79.69;97568.19;5016613;28;20218;-70
2022/12/29 06:02:44;;;;;;;1.20;1.00;;;;;;;10.61;80.40;97567.63;5016126;28;20234;-70
2022/12/29 06:05:10;;;;;;;1.40;1.23;;;;;;;10.52;81.13;97563.69;5016288;28;20587;-70
2022/12/29 06:07:37;;;;;;;2.70;1.17;;;;;;;10.45;81.00;97554.22;5016677;28;20212;-70
2022/12/29 06:10:05;;;;;;;2.67;1.20;;;;;;;10.30;82.31;97529.91;5016825;28;20213;-70
2022/12/29 06:12:32;;;;;;;1.63;1.20;;;;;;;10.50;80.09;97535.72;5015996;28;20294;-70
2022/12/29 06:14:58;;;;;;;1.23;1.00;;;;;;;10.49;80.48;97521.63;5015997;28;20210;-70
2022/12/29 06:17:24;;;;;;;3.03;1.40;;;;;;;10.49;80.32;97524.28;5016292;28;20221;-70
2022/12/29 06:19:51;;;;;;;2.50;1.20;;;;;;;10.40;80.80;97536.28;5016039;28;20221;-70
2022/12/29 06:22:17;;;;;;;1.70;1.10;;;;;;;10.30;81.25;97543.22;5015396;28;20265;-70
2022/12/29 06:24:43;;;;;;;2.43;0.90;;;;;;;10.51;79.79;97550.63;5015042;28;20238;-70
2022/12/29 06:27:10;;;;;;;1.63;1.00;;;;;;;10.48;80.36;97553.75;5015168;28;20211;-70
2022/12/29 06:29:36;;;;;;;4.53;1.23;;;;;;;10.30;81.38;97552.00;5014966;28;20206;-70
2022/12/29 06:32:04;;;;;;;1.57;1.10;;;;;;;10.27;81.19;97549.78;5014730;28;20226;-70
2022/12/29 06:34:30;;;;;;;1.40;1.17;;;;;;;10.29;81.89;97558.34;5015138;28;20297;-70
2022/12/29 06:36:57;;;;;;;1.33;1.13;;;;;;;10.42;80.34;97552.00;5015047;28;20215;-70
2022/12/29 06:39:23;;;;;;;2.93;1.47;;;;;;;10.50;79.98;97563.09;5015102;28;20213;-70
2022/12/29 06:41:53;;;;;;;1.43;1.10;;;;;;;10.42;80.38;97554.66;5014434;28;20226;-70
2022/12/29 06:44:20;;;;;;;2.80;1.07;;;;;;;10.34;80.79;97555.81;5014890;28;20210;-70
2022/12/29 06:46:46;;;;;;;1.83;1.13;;;;;;;10.21;80.96;97565.81;5014661;28;20233;-70
2022/12/29 06:49:12;;;;;;;2.40;1.13;;;;;;;10.15;81.36;97561.44;5014702;28;20210;-70
2022/12/29 06:51:39;;;;;;;1.63;1.33;;;;;;;10.06;81.98;97552.19;5015154;28;20231;-70
2022/12/29 06:54:05;;;;;;;2.50;1.33;;;;;;;9.95;83.09;97556.38;5014709;28;20207;-70
2022/12/29 06:56:32;;;;;;;1.70;1.30;;;;;;;9.77;84.19;97555.66;5014540;28;20206;-70
2022/12/29 06:58:59;;;;;;;1.43;1.00;;;;;;;9.64;84.34;97558.50;5014608;28;20210;-70
2022/12/29 07:01:26;;;;;;;2.63;1.20;;;;;;;9.55;84.14;97565.13;5014379;28;20268;-70
2022/12/29 07:03:52;;;;;;;4.23;1.10;;;;;;;9.49;84.22;97558.06;5014543;28;20217;-70
2022/12/29 07:06:19;;;;;;;1.43;1.30;;;;;;;9.56;83.31;97553.47;5015507;28;20226;-70
2022/12/29 07:08:45;;;;;;;1.43;1.17;;;;;;;9.54;83.23;97559.00;5014676;28;20203;-70
2022/12/29 07:11:11;;;;;;;1.47;1.00;;;;;;;9.48;83.58;97569.72;5014336;28;20231;-70
2022/12/29 07:13:38;;;;;;;2.20;1.20;;;;;;;9.44;83.87;97569.34;5014069;28;20233;-70
2022/12/29 07:16:11;;;;;;;1.40;1.10;;;;;;;9.40;83.60;97576.13;5014053;28;20207;-70
2022/12/29 07:18:37;;;;;;;1.53;1.10;;;;;;;9.35;83.57;97568.03;5014477;28;20210;-70
2022/12/29 07:21:05;;;;;;;1.30;1.20;;;;;;;9.31;83.67;97568.69;4976235;28;1092514;-70
2022/12/29 07:23:31;;;;;;;2.53;1.10;;;;;;;9.26;84.61;97577.31;5015222;28;20191;-70
2022/12/29 07:26:03;;;;;;;3.50;1.13;;;;;;;9.16;85.17;97576.22;5015185;28;20230;-70
2022/12/29 07:28:32;;;;;;;2.73;1.57;;;;;;;9.15;84.76;97572.75;5014953;28;20217;-70
2022/12/29 07:30:59;;;;;;;2.80;1.23;;;;;;;9.08;85.42;97574.69;5015055;28;20234;-70
2022/12/29 07:33:25;;;;;;;1.77;1.10;;;;;;;9.07;85.96;97569.59;5015214;28;20206;-70
2022/12/29 07:35:52;;;;;;;1.97;1.00;;;;;;;9.04;85.32;97572.66;5014713;28;20207;-70
2022/12/29 07:38:18;;;;;;;2.93;1.40;;;;;;;9.22;84.46;97573.50;5015085;28;20638;-70
2022/12/29 07:40:45;;;;;;;2.90;1.20;;;;;;;9.15;84.77;97566.66;5014399;28;20261;-70
2022/12/29 07:43:11;;;;;;;3.00;1.10;;;;;;;9.21;84.95;97571.06;5014220;28;20232;-70
2022/12/29 07:45:38;;;;;;;4.83;1.43;;;;;;;9.23;84.92;97583.06;5014146;28;20227;-70
2022/12/29 07:48:07;;;;;;;2.40;1.00;;;;;;;9.20;84.94;97574.75;5014302;28;20203;-70
2022/12/29 07:50:34;;;;;;;3.47;1.17;;;;;;;9.15;84.97;97574.59;5014529;28;20203;-70
2022/12/29 07:53:01;;;;;;;2.50;1.30;;;;;;;9.17;85.41;97576.00;5014209;28;20211;-70
2022/12/29 07:55:27;;;;;;;3.23;1.30;;;;;;;9.20;85.41;97572.91;5014328;28;20207;-70
2022/12/29 07:57:55;;;;;;;2.20;1.27;;;;;;;9.35;84.20;97577.81;5014562;28;20229;-70
2022/12/29 08:00:22;;;;;;;2.77;1.43;;;;;;;9.47;83.07;97574.22;5014605;28;20206;-70
2022/12/29 08:02:48;;;;;;;1.17;1.07;;;;;;;9.46;84.39;97574.44;5014221;28;20227;-70
2022/12/29 08:05:15;;;;;;;3.73;1.33;;;;;;;9.50;84.60;97586.22;5014391;28;20222;-70
2022/12/29 08:07:44;;;;;;;3.27;1.10;;;;;;;9.53;83.53;97589.25;5013673;28;20213;-70
2022/12/29 08:10:11;;;;;;;1.83;1.23;;;;;;;9.52;84.30;97592.94;5014430;28;20210;-70
2022/12/29 08:12:42;;;;;;;3.47;1.27;;;;;;;9.65;82.62;97591.94;5014359;28;20228;-70
2022/12/29 08:15:10;;;;;;;2.27;1.20;;;;;;;9.67;83.48;97597.81;5014187;28;20312;-70
2022/12/29 08:17:36;;;;;;;2.80;1.17;;;;;;;9.63;83.92;97602.78;5014301;28;20213;-70
2022/12/29 08:20:03;;;;;;;3.13;1.60;;;;;;;9.62;83.92;97613.63;5012821;28;20674;-70
2022/12/29 08:22:29;;;;;;;2.77;1.30;;;;;;;9.70;84.37;97606.19;5013824;28;20238;-70
2022/12/29 08:24:56;;;;;;;2.33;0.93;;;;;;;9.82;82.81;97600.91;5014199;28;20210;-70
2022/12/29 08:27:22;;;;;;;3.07;1.27;;;;;;;10.03;81.15;97605.69;5014076;28;20203;-70
2022/12/29 08:29:49;;;;;;;3.03;1.33;;;;;;;10.18;80.69;97598.97;5014174;28;20213;-70
2022/12/29 08:32:16;;;;;;;2.30;1.30;;;;;;;10.10;80.83;97601.16;5014163;28;20240;-70
2022/12/29 08:34:42;;;;;;;3.20;1.40;;;;;;;10.06;81.65;97597.31;5014131;28;20206;-70
2022/12/29 08:37:08;;;;;;;1.90;1.20;;;;;;;10.12;81.56;97591.91;5013815;28;20202;-70
2022/12/29 08:39:35;;;;;;;2.97;1.43;;;;;;;10.03;82.25;97592.44;5013312;28;20210;-70
2022/12/29 08:42:01;;;;;;;1.40;1.30;;;;;;;10.07;81.34;97583.81;5013616;28;20289;-70
2022/12/29 08:44:27;;;;;;;1.20;1.10;;;;;;;10.25;80.15;97578.44;5013271;28;20670;-70
2022/12/29 08:46:54;;;;;;;2.53;1.37;;;;;;;10.16;81.59;97587.78;5013294;28;20698;-70
2022/12/29 08:49:20;;;;;;;4.00;1.10;;;;;;;10.01;83.27;97597.97;5013798;28;20207;-70
2022/12/29 08:51:47;;;;;;;2.17;1.53;;;;;;;10.02;82.56;97588.16;5013457;28;20226;-70
2022/12/29 08:54:13;;;;;;;2.30;1.20;;;;;;;10.23;80.41;97588.47;5013496;28;20685;-70
2022/12/29 08:56:39;;;;;;;3.10;1.20;;;;;;;10.17;80.99;97586.72;5013571;28;20211;-70
2022/12/29 08:59:06;;;;;;;2.63;1.30;;;;;;;10.27;80.90;97592.28;5013602;28;20218;-70
2022/12/29 09:01:33;;;;;;;2.20;1.20;;;;;;;10.10;82.59;97593.97;5013287;28;20231;-70
2022/12/29 09:03:59;;;;;;;3.90;1.50;;;;;;;10.17;81.53;97594.69;5013439;28;20210;-70
2022/12/29 09:06:26;;;;;;;2.23;1.50;;;;;;;10.13;81.76;97606.00;5013847;28;20227;-70
2022/12/29 09:08:55;;;;;;;4.27;1.50;;;;;;;10.09;82.10;97610.16;5013614;28;20213;-70
2022/12/29 09:11:24;;;;;;;2.93;2.20;;;;;;;10.06;83.76;97619.41;5013454;28;20231;-70
2022/12/29 09:13:51;;;;;;;2.33;1.50;;;;;;;10.24;82.25;97614.03;5013354;28;20234;-70
2022/12/29 09:16:19;;;;;;;3.53;1.30;;;;;;;10.27;82.97;97628.69;5013327;28;20203;-70
2022/12/29 09:18:46;;;;;;;1.50;1.30;;;;;;;10.37;82.42;97631.59;5013276;28;20210;-70
2022/12/29 09:21:13;;;;;;;1.63;1.27;;;;;;;10.52;81.97;97611.53;5013196;28;20238;-70
2022/12/29 09:23:40;;;;;;;4.10;1.30;;;;;;;10.66;81.42;97623.56;5013503;28;20195;-70
2022/12/29 09:26:07;;;;;;;2.63;1.20;;;;;;;10.84;79.06;97631.44;5013626;28;20227;-70
2022/12/29 09:28:34;;;;;;;2.50;1.30;;;;;;;10.98;78.37;97624.03;5012747;28;20207;-70
2022/12/29 09:31:01;;;;;;;1.83;1.30;;;;;;;11.16;78.66;97625.78;5013624;28;20222;-70
2022/12/29 09:33:27;;;;;;;2.13;1.27;;;;;;;11.23;77.29;97629.94;5013843;28;20208;-70
2022/12/29 09:35:56;;;;;;;1.67;1.10;;;;;;;11.27;77.23;97633.75;5013544;28;20215;-70
2022/12/29 09:38:24;;;;;;;2.20;1.10;;;;;;;11.39;76.10;97639.84;5012807;28;20564;-70
2022/12/29 09:41:02;;;;;;;2.50;1.20;;;;;;;11.40;77.60;97638.00;5012861;28;20216;-70
2022/12/29 09:43:58;;;;;;;1.40;1.27;;;;;;;11.41;77.17;97629.78;5013055;28;20558;-70
2022/12/29 09:46:34;;;;;;;3.53;1.37;;;;;;;11.57;75.49;97629.03;5010492;28;20221;-70
2022/12/29 09:49:19;;;;;;;2.33;1.30;;;;;;;11.77;75.56;97626.03;5013311;28;20214;-71
2022/12/29 09:51:51;;;;;;;5.20;1.47;;;;;;;11.80;74.37;97631.66;5012652;28;20221;-70
2022/12/29 09:54:28;;;;;;;2.87;1.40;;;;;;;12.03;74.38;97628.13;4995770;28;20203;-70
2022/12/29 09:56:56;;;;;;;1.57;1.40;;;;;;;12.13;72.88;97625.66;5011518;28;20212;-70
2022/12/29 09:59:31;;;;;;;1.50;1.27;;;;;;;12.16;73.84;97625.97;5013450;28;20218;-70
2022/12/29 10:02:13;;;;;;;1.40;1.27;;;;;;;12.02;73.36;97634.50;5012597;28;20232;-70
2022/12/29 10:04:42;;;;;;;1.40;1.10;;;;;;;11.95;74.83;97623.19;5012804;28;20194;-70
2022/12/29 10:07:22;;;;;;;2.87;1.30;;;;;;;11.91;74.12;97617.53;5012658;28;20233;-70
2022/12/29 10:10:02;;;;;;;4.27;1.30;;;;;;;11.76;76.84;97627.06;5012847;28;20643;-70
2022/12/29 10:12:38;;;;;;;1.30;1.20;;;;;;;11.80;74.49;97621.03;5012616;28;20258;-70
2022/12/29 10:15:30;;;;;;;2.73;1.30;;;;;;;11.81;75.26;97622.66;5013371;28;20201;-70
2022/12/29 10:18:24;;;;;;;2.87;1.30;;;;;;;12.20;72.40;97626.31;5016499;28;20201;-70
2022/12/29 10:20:57;;;;;;;1.50;1.03;;;;;;;12.26;71.97;97617.34;5016788;28;20214;-70
2022/12/29 10:23:46;;;;;;;1.20;1.10;;;;;;;12.46;70.96;97634.50;5016019;28;20654;-70
2022/12/29 10:26:20;;;;;;;1.57;1.17;;;;;;;12.58;71.10;97624.59;5016241;28;20240;-70
2022/12/29 10:29:02;;;;;;;1.40;1.17;;;;;;;12.70;69.87;97640.53;5015753;28;20197;-70
2022/12/29 10:31:43;;;;;;;1.87;0.93;;;;;;;12.77;69.05;97627.81;5014749;28;20730;-70
2022/12/29 10:34:28;;;;;;;1.57;1.10;;;;;;;12.61;70.12;97634.75;5016152;28;20197;-70
2022/12/29 10:37:01;;;;;;;2.13;1.30;;;;;;;12.57;71.69;97635.50;5015672;28;20637;-70
2022/12/29 10:39:37;;;;;;;1.20;1.10;;;;;;;12.57;71.08;97622.16;5015954;28;20218;-70
2022/12/29 10:42:25;;;;;;;1.90;1.20;;;;;;;12.67;70.55;97627.66;5015507;28;20230;-70
2022/12/29 10:44:52;;;;;;;2.00;1.07;;;;;;;12.83;70.00;97625.00;5015894;28;20216;-70
2022/12/29 10:47:24;;;;;;;2.50;1.03;;;;;;;12.85;71.31;97620.19;5015604;28;20306;-70
2022/12/29 10:49:51;;;;;;;2.43;1.20;;;;;;;12.95;70.15;97615.03;5015740;28;20569;-69
2022/12/29 10:52:19;;;;;;;3.20;0.90;;;;;;;13.09;69.11;97620.88;5015608;28;20232;-70
2022/12/29 10:54:52;;;;;;;1.73;1.13;;;;;;;13.19;68.83;97618.34;5014018;28;20689;-69
2022/12/29 10:57:31;;;;;;;2.40;1.30;;;;;;;13.20;68.75;97619.97;5015328;28;20561;-69
2022/12/29 10:59:58;;;;;;;1.47;1.00;;;;;;;13.37;68.11;97621.53;5015807;28;20209;-70
2022/12/29 11:02:31;;;;;;;3.50;1.50;;;;;;;13.44;68.95;97616.03;5015381;28;20315;-70
2022/12/29 11:05:19;;;;;;;1.37;1.10;;;;;;;13.49;69.01;97616.09;5015496;28;20211;-70
2022/12/29 11:07:48;;;;;;;1.83;1.27;;;;;;;13.35;67.21;97612.97;5014013;28;20682;-69
2022/12/29 11:10:29;;;;;;;5.10;1.50;;;;;;;13.33;68.49;97620.41;5014391;28;20251;-70
2022/12/29 11:13:02;;;;;;;1.97;1.20;;;;;;;13.42;66.32;97612.78;5014974;28;20226;-70
2022/12/29 11:15:41;;;;;;;1.20;1.10;;;;;;;13.30;67.99;97620.91;5015140;28;20621;-69
2022/12/29 11:18:19;;;;;;;1.17;1.07;;;;;;;13.41;67.12;97629.84;5014180;28;20285;-70
2022/12/29 11:20:45;;;;;;;1.10;1.00;;;;;;;13.40;67.07;97631.75;5015061;28;20201;-72
2022/12/29 11:23:30;;;;;;;3.07;1.10;;;;;;;13.34;69.11;97627.38;5014933;28;20245;-71
2022/12/29 11:26:15;;;;;;;2.33;1.00;;;;;;;13.21;68.72;97625.03;5014579;28;20209;-70
2022/12/29 11:28:44;;;;;;;4.10;1.00;;;;;;;13.39;65.94;97629.31;5014248;28;20297;-70
2022/12/29 11:31:11;;;;;;;1.90;1.10;;;;;;;13.38;65.74;97617.03;5014670;28;20238;-70
2022/12/29 11:33:39;;;;;;;2.77;1.00;;;;;;;13.42;65.81;97631.47;5014729;28;20666;-71
2022/12/29 11:36:18;;;;;;;1.57;0.90;;;;;;;13.29;67.15;97624.63;5014342;28;20217;-71
2022/12/29 11:38:51;;;;;;;1.13;1.03;;;;;;;13.31;66.92;97629.72;5014962;28;20206;-70
2022/12/29 11:41:35;;;;;;;1.30;1.10;;;;;;;13.12;67.34;97645.19;5014964;28;20233;-70
2022/12/29 11:44:06;;;;;;;1.30;1.10;;;;;;;13.07;67.29;97639.78;5014673;28;20187;-70
2022/12/29 11:46:37;;;;;;;2.37;0.97;;;;;;;13.03;66.85;97640.53;5014671;28;20218;-71
2022/12/29 11:49:05;;;;;;;2.17;1.03;;;;;;;12.93;67.41;97638.47;5013692;28;20197;-71
2022/12/29 11:51:42;;;;;;;3.20;1.20;;;;;;;12.78;73.98;97632.09;5014729;28;20231;-70
2022/12/29 11:54:18;;;;;;;2.00;1.03;;;;;;;12.40;79.66;97643.47;5013498;28;20194;-69
2022/12/29 11:56:44;;;;;;;3.40;1.40;;;;;;;12.12;84.37;97650.69;5014547;28;20190;-72
2022/12/29 11:59:29;;;;;;;1.30;1.20;;;;;;;11.78;89.98;97646.28;5014573;28;20213;-71
2022/12/29 12:01:58;;;;;;;4.37;1.47;;;;;;;11.69;90.71;97642.34;5014428;28;20299;-72
2022/12/29 12:04:32;;;;;;;1.43;1.33;;;;;;;11.56;94.20;97640.75;5014522;28;20212;-72
2022/12/29 12:07:12;;;;;;;2.10;1.10;;;;;;;11.55;95.13;97643.63;5014551;28;20221;-72
2022/12/29 12:09:48;;;;;;;2.17;1.30;;;;;;;11.41;98.54;97642.28;5014509;28;20202;-71
2022/12/29 12:12:30;;;;;;;2.80;1.20;;;;;;;11.46;95.84;97637.06;5013217;28;20296;-72
2022/12/29 12:15:00;;;;;;;3.43;1.40;;;;;;;11.42;98.55;97634.06;5013053;28;20198;-72
2022/12/29 12:17:37;;;;;;;2.80;1.10;;;;;;;11.29;100.00;97618.34;5014206;28;20211;-72
2022/12/29 12:20:28;;;;;;;3.87;1.40;;;;;;;11.51;95.54;97621.19;5013057;28;20638;-72
2022/12/29 12:23:08;;;;;;;3.40;1.30;;;;;;;11.62;93.75;97623.84;5014033;28;20234;-72
2022/12/29 12:25:48;;;;;;;2.87;1.40;;;;;;;11.80;90.29;97623.69;5013987;28;20247;-70
2022/12/29 12:28:27;;;;;;;1.33;1.10;;;;;;;11.89;89.71;97632.13;5013968;28;20210;-70
2022/12/29 12:30:58;;;;;;;2.87;1.20;;;;;;;12.02;88.85;97634.50;5014009;28;20234;-70